CDT,Max TemperatureF,Mean TemperatureF,Min TemperatureF,Max Dew PointF,MeanDew PointF,Min DewpointF,Max Humidity, Mean Humidity, Min Humidity, Max Sea Level PressureIn, Mean Sea Level PressureIn, Min Sea Level PressureIn, Max VisibilityMiles, Mean VisibilityMiles, Min VisibilityMiles, Max Wind SpeedMPH, Mean Wind SpeedMPH, Max Gust SpeedMPH,PrecipitationIn, CloudCover, Events, WindDirDegrees
2012-10-1,79,66,54,55,49,45,80,63,31,29.93,29.88,29.83,10,9,2,23,10,41,0.46,1,Rain,334
2012-10-2,73,59,45,47,43,40,86,61,30,29.98,29.93,29.87,10,10,10,10,7,17,0.00,0,,322
2012-10-3,79,58,39,50,42,37,93,57,23,29.96,29.91,29.86,10,10,10,15,5,26,0.00,0,,171
2012-10-4,62,56,50,50,43,36,74,64,51,30.26,30.17,29.96,10,10,10,17,8,25,0.00,5,,353
2012-10-5,52,44,34,36,32,31,89,59,46,30.32,30.28,30.25,10,10,10,17,8,24,0.00,4,,9
2012-10-6,46,40,35,34,27,22,89,57,39,30.39,30.33,30.30,10,10,10,12,4,,0.00,5,,338
2012-10-7,57,42,27,32,26,22,85,59,28,30.35,30.26,30.15,10,10,10,13,5,17,0.00,1,,256
2012-10-8,66,50,34,36,32,28,82,54,28,30.14,30.04,29.93,10,10,10,21,10,29,0.00,0,,193
2012-10-9,66,54,39,47,38,27,68,56,44,30.15,29.96,29.89,10,10,10,16,11,25,0.00,2,,247
2012-10-10,64,47,30,33,28,25,82,52,25,30.30,30.21,30.14,10,10,10,9,3,,0.00,0,,175
2012-10-11,75,56,39,56,44,33,77,63,42,30.18,30.09,30.01,10,10,10,14,7,21,0.00,3,,138
2012-10-12,60,54,51,57,42,27,97,66,39,30.28,30.17,30.04,10,9,5,16,11,22,0.03,8,Rain-Thunderstorm,92
2012-10-13,70,64,57,67,63,57,100,92,82,30.04,29.80,29.60,10,8,2,29,12,41,0.76,8,Rain-Thunderstorm,172
2012-10-14,70,60,48,63,52,42,97,75,36,30.01,29.80,29.55,10,10,4,24,12,44,0.13,4,Rain-Thunderstorm,286
2012-10-15,79,60,41,53,47,39,93,69,32,30.01,29.92,29.78,10,10,10,8,2,,0.00,0,,131
2012-10-16,81,70,59,55,51,49,72,55,36,29.76,29.60,29.47,10,10,10,25,13,31,0.00,0,,200
2012-10-17,68,58,51,55,44,24,87,60,29,29.69,29.53,29.40,10,10,10,26,11,37,0.01,2,Rain,267
2012-10-18,61,52,44,35,28,24,53,39,26,29.73,29.69,29.65,10,10,10,32,18,46,0.00,3,,286
2012-10-19,59,50,41,40,36,34,89,60,48,29.84,29.78,29.69,10,10,10,23,16,32,0.00,6,,301
2012-10-20,75,56,36,45,40,33,93,65,29,29.84,29.77,29.68,10,10,10,12,5,,0.00,0,,125
2012-10-21,78,64,52,66,60,46,93,78,66,29.78,29.73,29.70,10,10,10,18,9,28,0.00,3,,147
2012-10-22,82,72,63,67,63,55,90,73,52,29.82,29.75,29.68,10,10,10,20,12,29,0.00,2,,198
2012-10-23,84,74,66,66,64,59,84,73,54,29.78,29.72,29.64,10,10,10,22,13,33,0.00,4,,177
2012-10-24,84,75,68,66,64,61,90,75,56,29.77,29.72,29.65,10,10,10,22,16,32,0.00,5,,182
2012-10-25,73,55,37,62,42,27,96,76,52,30.32,29.94,29.60,10,9,2,26,19,37,0.05,7,Rain,334
2012-10-26,46,38,30,27,26,24,82,64,48,30.52,30.44,30.35,10,10,10,16,11,22,0.00,2,,357
2012-10-27,46,35,24,29,26,21,89,69,46,30.45,30.37,30.28,10,10,10,8,3,,0.00,0,,48
2012-10-28,54,40,26,31,27,22,88,62,35,30.37,30.30,30.25,10,10,10,9,3,,0.00,2,,131
2012-10-29,60,50,41,32,30,28,65,52,33,30.29,30.21,30.09,10,10,10,16,8,20,0.00,3,,140
2012-10-30,59,48,37,33,31,29,73,56,36,30.09,30.03,29.98,10,10,10,15,8,,0.00,1,,107
2012-10-31,64,47,32,35,31,28,85,60,31,30.11,30.05,30.00,10,10,8,5,2,,0.00,0,,305